sensor_id;sensor_type;location;lat;lon;timestamp;temperature;humidity
10692;DHT22;5396;50.950;6.988;2024-02-14T00:00:09;8.80;99.90
10692;DHT22;5396;50.950;6.988;2024-02-14T00:02:44;8.90;99.90
10692;DHT22;5396;50.950;6.988;2024-02-14T00:05:10;8.90;99.90
10692;DHT22;5396;50.950;6.988;2024-02-14T00:07:37;8.90;99.90
10692;DHT22;5396;50.950;6.988;2024-02-14T00:10:03;9.00;99.90
10692;DHT22;5396;50.950;6.988;2024-02-14T00:12:31;9.10;99.90
10692;DHT22;5396;50.950;6.988;2024-02-14T00:14:57;9.20;99.90
10692;DHT22;5396;50.950;6.988;2024-02-14T00:17:23;9.30;99.90
10692;DHT22;5396;50.950;6.988;2024-02-14T00:19:48;9.40;99.90
10692;DHT22;5396;50.950;6.988;2024-02-14T00:22:14;9.40;99.90
10692;DHT22;5396;50.950;6.988;2024-02-14T00:24:39;9.50;99.90
10692;DHT22;5396;50.950;6.988;2024-02-14T00:27:05;9.50;99.90
10692;DHT22;5396;50.950;6.988;2024-02-14T00:29:31;9.50;99.90
10692;DHT22;5396;50.950;6.988;2024-02-14T00:31:59;9.50;99.90
10692;DHT22;5396;50.950;6.988;2024-02-14T00:34:25;9.50;99.90
10692;DHT22;5396;50.950;6.988;2024-02-14T00:36:50;9.50;99.90
10692;DHT22;5396;50.950;6.988;2024-02-14T00:39:17;9.40;99.90
10692;DHT22;5396;50.950;6.988;2024-02-14T00:41:42;9.40;99.90
10692;DHT22;5396;50.950;6.988;2024-02-14T00:44:08;9.40;99.90
10692;DHT22;5396;50.950;6.988;2024-02-14T00:46:34;9.40;99.90
10692;DHT22;5396;50.950;6.988;2024-02-14T00:49:00;9.40;99.90
10692;DHT22;5396;50.950;6.988;2024-02-14T00:51:25;9.40;99.90
10692;DHT22;5396;50.950;6.988;2024-02-14T00:53:51;9.40;99.90
10692;DHT22;5396;50.950;6.988;2024-02-14T00:56:17;9.50;99.90
10692;DHT22;5396;50.950;6.988;2024-02-14T00:58:43;9.50;99.90
10692;DHT22;5396;50.950;6.988;2024-02-14T01:01:09;9.50;99.90
10692;DHT22;5396;50.950;6.988;2024-02-14T01:03:34;9.50;99.90
10692;DHT22;5396;50.950;6.988;2024-02-14T01:06:00;9.50;99.90
10692;DHT22;5396;50.950;6.988;2024-02-14T01:08:25;9.40;99.90
10692;DHT22;5396;50.950;6.988;2024-02-14T01:10:51;9.40;99.90
10692;DHT22;5396;50.950;6.988;2024-02-14T01:13:17;9.40;99.90
10692;DHT22;5396;50.950;6.988;2024-02-14T01:15:42;9.50;99.90
10692;DHT22;5396;50.950;6.988;2024-02-14T01:18:09;9.40;99.90
10692;DHT22;5396;50.950;6.988;2024-02-14T01:20:35;9.40;99.90
10692;DHT22;5396;50.950;6.988;2024-02-14T01:23:01;9.40;99.90
10692;DHT22;5396;50.950;6.988;2024-02-14T01:25:26;9.40;99.90
10692;DHT22;5396;50.950;6.988;2024-02-14T01:27:52;9.40;99.90
10692;DHT22;5396;50.950;6.988;2024-02-14T01:30:18;9.40;99.90
10692;DHT22;5396;50.950;6.988;2024-02-14T01:32:43;9.40;99.90
10692;DHT22;5396;50.950;6.988;2024-02-14T01:35:09;9.40;99.90
10692;DHT22;5396;50.950;6.988;2024-02-14T01:37:35;9.40;99.90
10692;DHT22;5396;50.950;6.988;2024-02-14T01:40:00;9.40;99.90
10692;DHT22;5396;50.950;6.988;2024-02-14T01:42:28;9.40;99.90
10692;DHT22;5396;50.950;6.988;2024-02-14T01:44:54;9.40;99.90
10692;DHT22;5396;50.950;6.988;2024-02-14T01:47:22;9.40;99.90
10692;DHT22;5396;50.950;6.988;2024-02-14T01:49:47;9.40;99.90
10692;DHT22;5396;50.950;6.988;2024-02-14T01:52:13;9.40;99.90
10692;DHT22;5396;50.950;6.988;2024-02-14T01:54:39;9.50;99.90
10692;DHT22;5396;50.950;6.988;2024-02-14T01:57:05;9.50;99.90
10692;DHT22;5396;50.950;6.988;2024-02-14T01:59:31;9.50;99.90
10692;DHT22;5396;50.950;6.988;2024-02-14T02:01:57;9.50;99.90
10692;DHT22;5396;50.950;6.988;2024-02-14T02:04:22;9.50;99.90
10692;DHT22;5396;50.950;6.988;2024-02-14T02:06:48;9.50;99.90
10692;DHT22;5396;50.950;6.988;2024-02-14T02:09:13;9.40;99.90
10692;DHT22;5396;50.950;6.988;2024-02-14T02:11:45;9.50;99.90
10692;DHT22;5396;50.950;6.988;2024-02-14T02:14:10;9.50;99.90
10692;DHT22;5396;50.950;6.988;2024-02-14T02:16:37;9.50;99.90
10692;DHT22;5396;50.950;6.988;2024-02-14T02:19:03;9.50;99.90
10692;DHT22;5396;50.950;6.988;2024-02-14T02:21:30;9.50;99.90
10692;DHT22;5396;50.950;6.988;2024-02-14T02:23:55;9.50;99.90
10692;DHT22;5396;50.950;6.988;2024-02-14T02:26:21;9.50;99.90
10692;DHT22;5396;50.950;6.988;2024-02-14T02:28:46;9.50;99.90
10692;DHT22;5396;50.950;6.988;2024-02-14T02:31:12;9.50;99.90
10692;DHT22;5396;50.950;6.988;2024-02-14T02:33:37;9.50;99.90
10692;DHT22;5396;50.950;6.988;2024-02-14T02:36:03;9.50;99.90
10692;DHT22;5396;50.950;6.988;2024-02-14T02:38:29;9.50;99.90
10692;DHT22;5396;50.950;6.988;2024-02-14T02:40:54;9.40;99.90
10692;DHT22;5396;50.950;6.988;2024-02-14T02:43:20;9.40;99.90
10692;DHT22;5396;50.950;6.988;2024-02-14T02:45:45;9.50;99.90
10692;DHT22;5396;50.950;6.988;2024-02-14T02:48:11;9.50;99.90
10692;DHT22;5396;50.950;6.988;2024-02-14T02:50:37;9.50;99.90
10692;DHT22;5396;50.950;6.988;2024-02-14T02:53:02;9.50;99.90
10692;DHT22;5396;50.950;6.988;2024-02-14T02:55:28;9.50;99.90
10692;DHT22;5396;50.950;6.988;2024-02-14T02:57:53;9.50;99.90
10692;DHT22;5396;50.950;6.988;2024-02-14T03:00:19;9.50;99.90
10692;DHT22;5396;50.950;6.988;2024-02-14T03:02:46;9.50;99.90
10692;DHT22;5396;50.950;6.988;2024-02-14T03:05:12;9.50;99.90
10692;DHT22;5396;50.950;6.988;2024-02-14T03:07:46;9.50;99.90
10692;DHT22;5396;50.950;6.988;2024-02-14T03:10:14;9.50;99.90
10692;DHT22;5396;50.950;6.988;2024-02-14T03:12:40;9.50;99.90
10692;DHT22;5396;50.950;6.988;2024-02-14T03:15:05;9.50;99.90
10692;DHT22;5396;50.950;6.988;2024-02-14T03:17:31;9.60;99.90
10692;DHT22;5396;50.950;6.988;2024-02-14T03:19:57;9.60;99.90
10692;DHT22;5396;50.950;6.988;2024-02-14T03:22:22;9.60;99.90
10692;DHT22;5396;50.950;6.988;2024-02-14T03:24:48;9.60;99.90
10692;DHT22;5396;50.950;6.988;2024-02-14T03:27:13;9.60;99.90
10692;DHT22;5396;50.950;6.988;2024-02-14T03:29:39;9.60;99.90
10692;DHT22;5396;50.950;6.988;2024-02-14T03:32:04;9.60;99.90
10692;DHT22;5396;50.950;6.988;2024-02-14T03:34:30;9.60;99.90
10692;DHT22;5396;50.950;6.988;2024-02-14T03:36:58;9.60;99.90
10692;DHT22;5396;50.950;6.988;2024-02-14T03:39:24;9.70;99.90
10692;DHT22;5396;50.950;6.988;2024-02-14T03:41:49;9.60;99.90
10692;DHT22;5396;50.950;6.988;2024-02-14T03:44:15;9.60;99.90
10692;DHT22;5396;50.950;6.988;2024-02-14T03:46:40;9.60;99.90
10692;DHT22;5396;50.950;6.988;2024-02-14T03:49:06;9.60;99.90
10692;DHT22;5396;50.950;6.988;2024-02-14T03:51:31;9.60;99.90
10692;DHT22;5396;50.950;6.988;2024-02-14T03:53:57;9.60;99.90
10692;DHT22;5396;50.950;6.988;2024-02-14T03:56:23;9.60;99.90
10692;DHT22;5396;50.950;6.988;2024-02-14T03:58:49;9.70;99.90
10692;DHT22;5396;50.950;6.988;2024-02-14T04:01:14;9.60;99.90
10692;DHT22;5396;50.950;6.988;2024-02-14T04:03:40;9.70;99.90
10692;DHT22;5396;50.950;6.988;2024-02-14T04:06:05;9.60;99.90
10692;DHT22;5396;50.950;6.988;2024-02-14T04:08:32;9.70;99.90
10692;DHT22;5396;50.950;6.988;2024-02-14T04:10:58;9.70;99.90
10692;DHT22;5396;50.950;6.988;2024-02-14T04:13:24;9.60;99.90
10692;DHT22;5396;50.950;6.988;2024-02-14T04:15:49;9.70;99.90
10692;DHT22;5396;50.950;6.988;2024-02-14T04:18:15;9.70;99.90
10692;DHT22;5396;50.950;6.988;2024-02-14T04:20:43;9.60;99.90
10692;DHT22;5396;50.950;6.988;2024-02-14T04:23:09;9.60;99.90
10692;DHT22;5396;50.950;6.988;2024-02-14T04:25:35;9.60;99.90
10692;DHT22;5396;50.950;6.988;2024-02-14T04:28:00;9.70;99.90
10692;DHT22;5396;50.950;6.988;2024-02-14T04:30:25;9.70;99.90
10692;DHT22;5396;50.950;6.988;2024-02-14T04:32:51;9.70;99.90
10692;DHT22;5396;50.950;6.988;2024-02-14T04:35:19;9.70;99.90
10692;DHT22;5396;50.950;6.988;2024-02-14T04:37:45;9.70;99.90
10692;DHT22;5396;50.950;6.988;2024-02-14T04:40:12;9.80;99.90
10692;DHT22;5396;50.950;6.988;2024-02-14T04:42:37;9.80;99.90
10692;DHT22;5396;50.950;6.988;2024-02-14T04:45:03;9.80;99.90
10692;DHT22;5396;50.950;6.988;2024-02-14T04:47:28;9.80;99.90
10692;DHT22;5396;50.950;6.988;2024-02-14T04:49:55;9.80;99.90
10692;DHT22;5396;50.950;6.988;2024-02-14T04:52:20;9.80;99.90
10692;DHT22;5396;50.950;6.988;2024-02-14T04:54:46;9.80;99.90
10692;DHT22;5396;50.950;6.988;2024-02-14T04:57:11;9.80;99.90
10692;DHT22;5396;50.950;6.988;2024-02-14T04:59:37;9.80;99.90
10692;DHT22;5396;50.950;6.988;2024-02-14T05:02:03;9.80;99.90
10692;DHT22;5396;50.950;6.988;2024-02-14T05:04:28;9.80;99.90
10692;DHT22;5396;50.950;6.988;2024-02-14T05:06:55;9.80;99.90
10692;DHT22;5396;50.950;6.988;2024-02-14T05:09:20;9.80;99.90
10692;DHT22;5396;50.950;6.988;2024-02-14T05:11:46;9.80;99.90
10692;DHT22;5396;50.950;6.988;2024-02-14T05:14:11;9.80;99.90
10692;DHT22;5396;50.950;6.988;2024-02-14T05:16:36;9.80;99.90
10692;DHT22;5396;50.950;6.988;2024-02-14T05:19:02;9.90;99.90
10692;DHT22;5396;50.950;6.988;2024-02-14T05:21:27;9.80;99.90
10692;DHT22;5396;50.950;6.988;2024-02-14T05:23:53;9.90;99.90
10692;DHT22;5396;50.950;6.988;2024-02-14T05:26:20;9.80;99.90
10692;DHT22;5396;50.950;6.988;2024-02-14T05:28:45;9.90;99.90
10692;DHT22;5396;50.950;6.988;2024-02-14T05:31:11;9.90;99.90
10692;DHT22;5396;50.950;6.988;2024-02-14T05:33:37;9.90;99.90
10692;DHT22;5396;50.950;6.988;2024-02-14T05:36:02;9.90;99.90
10692;DHT22;5396;50.950;6.988;2024-02-14T05:38:28;9.90;99.90
10692;DHT22;5396;50.950;6.988;2024-02-14T05:40:55;9.90;99.90
10692;DHT22;5396;50.950;6.988;2024-02-14T05:43:21;9.90;99.90
10692;DHT22;5396;50.950;6.988;2024-02-14T05:45:47;9.90;99.90
10692;DHT22;5396;50.950;6.988;2024-02-14T05:48:12;9.90;99.90
10692;DHT22;5396;50.950;6.988;2024-02-14T05:50:38;9.90;99.90
10692;DHT22;5396;50.950;6.988;2024-02-14T05:53:04;9.90;99.90
10692;DHT22;5396;50.950;6.988;2024-02-14T05:55:30;9.80;99.90
10692;DHT22;5396;50.950;6.988;2024-02-14T05:57:56;9.80;99.90
10692;DHT22;5396;50.950;6.988;2024-02-14T06:00:24;9.80;99.90
10692;DHT22;5396;50.950;6.988;2024-02-14T06:02:49;9.80;99.90
10692;DHT22;5396;50.950;6.988;2024-02-14T06:05:15;9.80;99.90
10692;DHT22;5396;50.950;6.988;2024-02-14T06:07:40;9.70;99.90
10692;DHT22;5396;50.950;6.988;2024-02-14T06:10:07;9.70;99.90
10692;DHT22;5396;50.950;6.988;2024-02-14T06:12:33;9.70;99.90
10692;DHT22;5396;50.950;6.988;2024-02-14T06:14:58;9.60;99.90
10692;DHT22;5396;50.950;6.988;2024-02-14T06:17:24;9.60;99.90
10692;DHT22;5396;50.950;6.988;2024-02-14T06:19:51;9.60;99.90
10692;DHT22;5396;50.950;6.988;2024-02-14T06:22:17;9.50;99.90
10692;DHT22;5396;50.950;6.988;2024-02-14T06:24:42;9.50;99.90
10692;DHT22;5396;50.950;6.988;2024-02-14T06:27:08;9.50;99.90
10692;DHT22;5396;50.950;6.988;2024-02-14T06:29:33;9.50;99.90
10692;DHT22;5396;50.950;6.988;2024-02-14T06:31:59;9.50;99.90
10692;DHT22;5396;50.950;6.988;2024-02-14T06:34:24;9.50;99.90
10692;DHT22;5396;50.950;6.988;2024-02-14T06:36:51;9.50;99.90
10692;DHT22;5396;50.950;6.988;2024-02-14T06:39:16;9.50;99.90
10692;DHT22;5396;50.950;6.988;2024-02-14T06:41:42;9.60;99.90
10692;DHT22;5396;50.950;6.988;2024-02-14T06:44:10;9.60;99.90
10692;DHT22;5396;50.950;6.988;2024-02-14T06:46:36;9.60;99.90
10692;DHT22;5396;50.950;6.988;2024-02-14T06:49:03;9.70;99.90
10692;DHT22;5396;50.950;6.988;2024-02-14T06:51:28;9.70;99.90
10692;DHT22;5396;50.950;6.988;2024-02-14T06:53:55;9.80;99.90
10692;DHT22;5396;50.950;6.988;2024-02-14T06:56:21;9.80;99.90
10692;DHT22;5396;50.950;6.988;2024-02-14T06:58:46;9.90;99.90
10692;DHT22;5396;50.950;6.988;2024-02-14T07:01:17;9.90;99.90
10692;DHT22;5396;50.950;6.988;2024-02-14T07:03:47;9.90;99.90
10692;DHT22;5396;50.950;6.988;2024-02-14T07:06:12;9.90;99.90
10692;DHT22;5396;50.950;6.988;2024-02-14T07:08:40;9.90;99.90
10692;DHT22;5396;50.950;6.988;2024-02-14T07:11:05;9.90;99.90
10692;DHT22;5396;50.950;6.988;2024-02-14T07:13:31;9.90;99.90
10692;DHT22;5396;50.950;6.988;2024-02-14T07:15:56;10.00;99.90
10692;DHT22;5396;50.950;6.988;2024-02-14T07:18:22;10.00;99.90
10692;DHT22;5396;50.950;6.988;2024-02-14T07:20:47;10.00;99.90
10692;DHT22;5396;50.950;6.988;2024-02-14T07:23:13;10.00;99.90
10692;DHT22;5396;50.950;6.988;2024-02-14T07:25:38;10.00;99.90
10692;DHT22;5396;50.950;6.988;2024-02-14T07:28:04;10.00;99.90
10692;DHT22;5396;50.950;6.988;2024-02-14T07:30:29;10.00;99.90
10692;DHT22;5396;50.950;6.988;2024-02-14T07:32:55;10.00;99.90
10692;DHT22;5396;50.950;6.988;2024-02-14T07:35:20;10.00;99.90
10692;DHT22;5396;50.950;6.988;2024-02-14T07:37:46;10.00;99.90
10692;DHT22;5396;50.950;6.988;2024-02-14T07:40:13;10.10;99.90
10692;DHT22;5396;50.950;6.988;2024-02-14T07:42:38;10.00;99.90
10692;DHT22;5396;50.950;6.988;2024-02-14T07:45:04;10.10;99.90
10692;DHT22;5396;50.950;6.988;2024-02-14T07:47:29;10.10;99.90
10692;DHT22;5396;50.950;6.988;2024-02-14T07:49:55;10.10;99.90
10692;DHT22;5396;50.950;6.988;2024-02-14T07:52:20;10.10;99.90
10692;DHT22;5396;50.950;6.988;2024-02-14T07:54:46;10.10;99.90
10692;DHT22;5396;50.950;6.988;2024-02-14T07:57:12;10.10;99.90
10692;DHT22;5396;50.950;6.988;2024-02-14T07:59:37;10.20;99.90
10692;DHT22;5396;50.950;6.988;2024-02-14T08:02:03;10.20;99.90
10692;DHT22;5396;50.950;6.988;2024-02-14T08:04:28;10.20;99.90
10692;DHT22;5396;50.950;6.988;2024-02-14T08:06:54;10.20;99.90
10692;DHT22;5396;50.950;6.988;2024-02-14T08:09:19;10.30;99.90
10692;DHT22;5396;50.950;6.988;2024-02-14T08:11:45;10.30;99.90
10692;DHT22;5396;50.950;6.988;2024-02-14T08:14:10;10.40;99.90
10692;DHT22;5396;50.950;6.988;2024-02-14T08:16:36;10.40;99.90
10692;DHT22;5396;50.950;6.988;2024-02-14T08:19:02;10.40;99.90
10692;DHT22;5396;50.950;6.988;2024-02-14T08:21:28;10.50;99.90
10692;DHT22;5396;50.950;6.988;2024-02-14T08:23:53;10.50;99.90
10692;DHT22;5396;50.950;6.988;2024-02-14T08:26:20;10.60;99.90
10692;DHT22;5396;50.950;6.988;2024-02-14T08:28:46;10.70;99.90
10692;DHT22;5396;50.950;6.988;2024-02-14T08:31:12;10.70;99.90
10692;DHT22;5396;50.950;6.988;2024-02-14T08:33:38;10.80;99.90
10692;DHT22;5396;50.950;6.988;2024-02-14T08:36:04;10.80;99.90
10692;DHT22;5396;50.950;6.988;2024-02-14T08:38:30;10.90;99.90
10692;DHT22;5396;50.950;6.988;2024-02-14T08:40:55;11.00;99.90
10692;DHT22;5396;50.950;6.988;2024-02-14T08:43:22;11.00;99.90
10692;DHT22;5396;50.950;6.988;2024-02-14T08:45:49;11.10;99.90
10692;DHT22;5396;50.950;6.988;2024-02-14T08:48:17;11.00;99.90
10692;DHT22;5396;50.950;6.988;2024-02-14T08:50:42;11.10;99.90
10692;DHT22;5396;50.950;6.988;2024-02-14T08:53:09;11.20;99.90
10692;DHT22;5396;50.950;6.988;2024-02-14T08:55:35;11.20;99.90
10692;DHT22;5396;50.950;6.988;2024-02-14T08:58:01;11.20;99.90
10692;DHT22;5396;50.950;6.988;2024-02-14T09:00:27;11.20;99.90
10692;DHT22;5396;50.950;6.988;2024-02-14T09:02:52;11.30;99.90
10692;DHT22;5396;50.950;6.988;2024-02-14T09:05:18;11.40;99.90
10692;DHT22;5396;50.950;6.988;2024-02-14T09:07:44;11.40;99.90
10692;DHT22;5396;50.950;6.988;2024-02-14T09:10:09;11.40;99.90
10692;DHT22;5396;50.950;6.988;2024-02-14T09:12:38;11.50;99.90
10692;DHT22;5396;50.950;6.988;2024-02-14T09:15:04;11.50;99.90
10692;DHT22;5396;50.950;6.988;2024-02-14T09:17:30;11.50;99.90
10692;DHT22;5396;50.950;6.988;2024-02-14T09:19:56;11.50;99.90
10692;DHT22;5396;50.950;6.988;2024-02-14T09:22:21;11.60;99.90
10692;DHT22;5396;50.950;6.988;2024-02-14T09:24:47;11.60;99.90
10692;DHT22;5396;50.950;6.988;2024-02-14T09:27:13;11.60;99.90
10692;DHT22;5396;50.950;6.988;2024-02-14T09:29:39;11.70;99.90
10692;DHT22;5396;50.950;6.988;2024-02-14T09:32:04;11.80;99.90
10692;DHT22;5396;50.950;6.988;2024-02-14T09:34:30;11.90;99.90
10692;DHT22;5396;50.950;6.988;2024-02-14T09:36:56;12.00;99.90
10692;DHT22;5396;50.950;6.988;2024-02-14T09:39:24;12.00;99.90
10692;DHT22;5396;50.950;6.988;2024-02-14T09:41:54;12.30;99.90
10692;DHT22;5396;50.950;6.988;2024-02-14T09:44:21;12.30;99.90
10692;DHT22;5396;50.950;6.988;2024-02-14T09:46:49;12.30;99.90
10692;DHT22;5396;50.950;6.988;2024-02-14T09:49:15;12.30;99.90
10692;DHT22;5396;50.950;6.988;2024-02-14T09:51:42;12.40;99.90
10692;DHT22;5396;50.950;6.988;2024-02-14T09:54:08;12.30;99.90
10692;DHT22;5396;50.950;6.988;2024-02-14T09:56:37;12.40;99.90
10692;DHT22;5396;50.950;6.988;2024-02-14T09:59:02;12.50;99.90
10692;DHT22;5396;50.950;6.988;2024-02-14T10:01:28;12.50;99.90
10692;DHT22;5396;50.950;6.988;2024-02-14T10:03:54;12.50;99.90
10692;DHT22;5396;50.950;6.988;2024-02-14T10:06:20;12.50;99.90
10692;DHT22;5396;50.950;6.988;2024-02-14T10:08:46;12.60;99.90
10692;DHT22;5396;50.950;6.988;2024-02-14T10:11:13;12.60;99.90
10692;DHT22;5396;50.950;6.988;2024-02-14T10:13:40;12.60;99.90
10692;DHT22;5396;50.950;6.988;2024-02-14T10:16:07;12.70;99.90
10692;DHT22;5396;50.950;6.988;2024-02-14T10:18:34;12.60;99.90
10692;DHT22;5396;50.950;6.988;2024-02-14T10:20:59;12.70;99.90
10692;DHT22;5396;50.950;6.988;2024-02-14T10:23:26;12.60;99.90
10692;DHT22;5396;50.950;6.988;2024-02-14T10:25:54;12.60;99.90
10692;DHT22;5396;50.950;6.988;2024-02-14T10:28:23;12.50;99.90
10692;DHT22;5396;50.950;6.988;2024-02-14T10:30:48;12.50;99.90
10692;DHT22;5396;50.950;6.988;2024-02-14T10:33:17;12.50;99.90
10692;DHT22;5396;50.950;6.988;2024-02-14T10:35:44;12.50;99.90
10692;DHT22;5396;50.950;6.988;2024-02-14T10:38:10;12.50;99.90
10692;DHT22;5396;50.950;6.988;2024-02-14T10:40:36;12.60;99.90
10692;DHT22;5396;50.950;6.988;2024-02-14T10:43:08;12.80;99.90
10692;DHT22;5396;50.950;6.988;2024-02-14T10:45:37;12.90;99.90
10692;DHT22;5396;50.950;6.988;2024-02-14T10:48:06;13.00;99.90
10692;DHT22;5396;50.950;6.988;2024-02-14T10:50:36;13.10;99.90
10692;DHT22;5396;50.950;6.988;2024-02-14T10:53:04;13.10;99.90
10692;DHT22;5396;50.950;6.988;2024-02-14T10:55:30;13.20;99.90
10692;DHT22;5396;50.950;6.988;2024-02-14T10:57:59;13.30;99.90
10692;DHT22;5396;50.950;6.988;2024-02-14T11:00:25;13.30;99.90
10692;DHT22;5396;50.950;6.988;2024-02-14T11:02:52;13.40;99.90
10692;DHT22;5396;50.950;6.988;2024-02-14T11:05:18;13.50;99.90
10692;DHT22;5396;50.950;6.988;2024-02-14T11:07:47;13.50;99.90
10692;DHT22;5396;50.950;6.988;2024-02-14T11:10:14;13.50;99.90
10692;DHT22;5396;50.950;6.988;2024-02-14T11:12:40;13.50;99.90
10692;DHT22;5396;50.950;6.988;2024-02-14T11:15:09;13.50;99.90
10692;DHT22;5396;50.950;6.988;2024-02-14T11:17:36;13.20;99.90
10692;DHT22;5396;50.950;6.988;2024-02-14T11:20:11;13.20;99.90
10692;DHT22;5396;50.950;6.988;2024-02-14T11:22:37;13.20;99.90
10692;DHT22;5396;50.950;6.988;2024-02-14T11:25:14;13.00;99.90
10692;DHT22;5396;50.950;6.988;2024-02-14T11:27:45;12.80;99.90
10692;DHT22;5396;50.950;6.988;2024-02-14T11:30:10;12.60;99.90
10692;DHT22;5396;50.950;6.988;2024-02-14T11:32:37;12.60;99.90
10692;DHT22;5396;50.950;6.988;2024-02-14T11:35:07;12.70;99.90
10692;DHT22;5396;50.950;6.988;2024-02-14T11:37:36;12.90;99.90
10692;DHT22;5396;50.950;6.988;2024-02-14T11:40:01;13.10;99.90
10692;DHT22;5396;50.950;6.988;2024-02-14T11:42:27;13.20;99.90
10692;DHT22;5396;50.950;6.988;2024-02-14T11:44:53;13.30;99.90
10692;DHT22;5396;50.950;6.988;2024-02-14T11:47:21;13.40;99.90
10692;DHT22;5396;50.950;6.988;2024-02-14T11:49:47;13.40;99.90
10692;DHT22;5396;50.950;6.988;2024-02-14T11:52:13;13.40;99.90
10692;DHT22;5396;50.950;6.988;2024-02-14T11:54:39;13.50;99.90
10692;DHT22;5396;50.950;6.988;2024-02-14T11:57:04;13.50;99.90
10692;DHT22;5396;50.950;6.988;2024-02-14T11:59:32;13.60;99.90
10692;DHT22;5396;50.950;6.988;2024-02-14T12:01:57;13.60;99.90
10692;DHT22;5396;50.950;6.988;2024-02-14T12:04:23;13.60;99.90
10692;DHT22;5396;50.950;6.988;2024-02-14T12:06:49;13.60;99.90
10692;DHT22;5396;50.950;6.988;2024-02-14T12:09:15;13.60;99.90
10692;DHT22;5396;50.950;6.988;2024-02-14T12:11:40;13.50;99.90
10692;DHT22;5396;50.950;6.988;2024-02-14T12:14:08;13.40;99.90
10692;DHT22;5396;50.950;6.988;2024-02-14T12:16:35;13.40;99.90
10692;DHT22;5396;50.950;6.988;2024-02-14T12:19:06;13.40;99.90
10692;DHT22;5396;50.950;6.988;2024-02-14T12:21:34;13.40;99.90
10692;DHT22;5396;50.950;6.988;2024-02-14T12:24:00;13.30;99.90
10692;DHT22;5396;50.950;6.988;2024-02-14T12:26:25;13.10;99.90
10692;DHT22;5396;50.950;6.988;2024-02-14T12:28:51;13.20;99.90
10692;DHT22;5396;50.950;6.988;2024-02-14T12:31:26;13.10;99.90
10692;DHT22;5396;50.950;6.988;2024-02-14T12:33:52;13.10;99.90
10692;DHT22;5396;50.950;6.988;2024-02-14T12:36:20;13.10;99.90
10692;DHT22;5396;50.950;6.988;2024-02-14T12:38:46;13.20;99.90
10692;DHT22;5396;50.950;6.988;2024-02-14T12:41:12;13.30;99.90
10692;DHT22;5396;50.950;6.988;2024-02-14T12:43:37;13.30;99.90
10692;DHT22;5396;50.950;6.988;2024-02-14T12:46:03;13.30;99.90
10692;DHT22;5396;50.950;6.988;2024-02-14T12:48:29;13.40;99.90
10692;DHT22;5396;50.950;6.988;2024-02-14T12:50:55;13.50;99.90
10692;DHT22;5396;50.950;6.988;2024-02-14T12:53:22;13.50;99.90
10692;DHT22;5396;50.950;6.988;2024-02-14T12:55:48;13.50;99.90
10692;DHT22;5396;50.950;6.988;2024-02-14T12:58:14;13.60;99.90
10692;DHT22;5396;50.950;6.988;2024-02-14T13:00:40;13.50;99.90
10692;DHT22;5396;50.950;6.988;2024-02-14T13:03:08;13.60;99.90
10692;DHT22;5396;50.950;6.988;2024-02-14T13:05:35;13.60;99.90
10692;DHT22;5396;50.950;6.988;2024-02-14T13:08:02;13.60;99.90
10692;DHT22;5396;50.950;6.988;2024-02-14T13:10:27;13.50;99.90
10692;DHT22;5396;50.950;6.988;2024-02-14T13:12:53;13.50;99.90
10692;DHT22;5396;50.950;6.988;2024-02-14T13:15:19;13.50;99.90
10692;DHT22;5396;50.950;6.988;2024-02-14T13:17:44;13.50;99.90
10692;DHT22;5396;50.950;6.988;2024-02-14T13:20:10;13.50;99.90
10692;DHT22;5396;50.950;6.988;2024-02-14T13:22:36;13.50;99.90
10692;DHT22;5396;50.950;6.988;2024-02-14T13:25:02;13.50;99.90
10692;DHT22;5396;50.950;6.988;2024-02-14T13:27:28;13.30;99.90
10692;DHT22;5396;50.950;6.988;2024-02-14T13:29:53;13.20;99.90
10692;DHT22;5396;50.950;6.988;2024-02-14T13:32:19;13.20;99.90
10692;DHT22;5396;50.950;6.988;2024-02-14T13:34:44;13.30;99.90
10692;DHT22;5396;50.950;6.988;2024-02-14T13:37:10;13.30;99.90
10692;DHT22;5396;50.950;6.988;2024-02-14T13:39:36;13.30;99.90
10692;DHT22;5396;50.950;6.988;2024-02-14T13:42:01;13.40;99.90
10692;DHT22;5396;50.950;6.988;2024-02-14T13:44:27;13.30;99.90
10692;DHT22;5396;50.950;6.988;2024-02-14T13:46:53;13.30;99.90
10692;DHT22;5396;50.950;6.988;2024-02-14T13:49:19;13.30;99.90
10692;DHT22;5396;50.950;6.988;2024-02-14T13:51:52;13.20;99.90
10692;DHT22;5396;50.950;6.988;2024-02-14T13:54:18;13.20;99.90
10692;DHT22;5396;50.950;6.988;2024-02-14T13:56:43;13.10;99.90
10692;DHT22;5396;50.950;6.988;2024-02-14T13:59:10;13.10;99.90
10692;DHT22;5396;50.950;6.988;2024-02-14T14:01:35;12.90;99.90
10692;DHT22;5396;50.950;6.988;2024-02-14T14:04:01;12.70;99.90
10692;DHT22;5396;50.950;6.988;2024-02-14T14:06:27;12.70;99.90
10692;DHT22;5396;50.950;6.988;2024-02-14T14:08:52;12.60;99.90
10692;DHT22;5396;50.950;6.988;2024-02-14T14:11:18;12.60;99.90
10692;DHT22;5396;50.950;6.988;2024-02-14T14:13:43;12.50;99.90
10692;DHT22;5396;50.950;6.988;2024-02-14T14:16:09;12.40;99.90
10692;DHT22;5396;50.950;6.988;2024-02-14T14:18:36;12.30;99.90
10692;DHT22;5396;50.950;6.988;2024-02-14T14:21:02;12.20;99.90
10692;DHT22;5396;50.950;6.988;2024-02-14T14:23:28;12.10;99.90
10692;DHT22;5396;50.950;6.988;2024-02-14T14:25:54;12.10;99.90
10692;DHT22;5396;50.950;6.988;2024-02-14T14:28:19;12.00;99.90
10692;DHT22;5396;50.950;6.988;2024-02-14T14:30:55;12.00;99.90
10692;DHT22;5396;50.950;6.988;2024-02-14T14:33:21;11.90;99.90
10692;DHT22;5396;50.950;6.988;2024-02-14T14:35:47;11.80;99.90
10692;DHT22;5396;50.950;6.988;2024-02-14T14:38:15;11.70;99.90
10692;DHT22;5396;50.950;6.988;2024-02-14T14:40:41;11.70;99.90
10692;DHT22;5396;50.950;6.988;2024-02-14T14:43:06;11.60;99.90
10692;DHT22;5396;50.950;6.988;2024-02-14T14:45:35;11.60;99.90
10692;DHT22;5396;50.950;6.988;2024-02-14T14:48:00;11.50;99.90
10692;DHT22;5396;50.950;6.988;2024-02-14T14:50:26;11.50;99.90
10692;DHT22;5396;50.950;6.988;2024-02-14T14:52:52;11.50;99.90
10692;DHT22;5396;50.950;6.988;2024-02-14T14:55:18;11.50;99.90
10692;DHT22;5396;50.950;6.988;2024-02-14T14:57:44;11.40;99.90
10692;DHT22;5396;50.950;6.988;2024-02-14T15:00:09;11.40;99.90
10692;DHT22;5396;50.950;6.988;2024-02-14T15:02:38;11.40;99.90
10692;DHT22;5396;50.950;6.988;2024-02-14T15:05:04;11.40;99.90
10692;DHT22;5396;50.950;6.988;2024-02-14T15:07:29;11.40;99.90
10692;DHT22;5396;50.950;6.988;2024-02-14T15:09:55;11.40;99.90
10692;DHT22;5396;50.950;6.988;2024-02-14T15:12:20;11.40;99.90
10692;DHT22;5396;50.950;6.988;2024-02-14T15:14:51;11.40;99.90
10692;DHT22;5396;50.950;6.988;2024-02-14T15:17:16;11.40;99.90
10692;DHT22;5396;50.950;6.988;2024-02-14T15:19:42;11.40;99.90
10692;DHT22;5396;50.950;6.988;2024-02-14T15:22:07;11.30;99.90
10692;DHT22;5396;50.950;6.988;2024-02-14T15:24:33;11.30;99.90
10692;DHT22;5396;50.950;6.988;2024-02-14T15:27:01;11.30;99.90
10692;DHT22;5396;50.950;6.988;2024-02-14T15:29:27;11.20;99.90
10692;DHT22;5396;50.950;6.988;2024-02-14T15:32:12;11.20;99.90
10692;DHT22;5396;50.950;6.988;2024-02-14T15:34:56;11.20;99.90
10692;DHT22;5396;50.950;6.988;2024-02-14T15:37:22;11.20;99.90
10692;DHT22;5396;50.950;6.988;2024-02-14T15:39:47;11.20;99.90
10692;DHT22;5396;50.950;6.988;2024-02-14T15:42:13;11.10;99.90
10692;DHT22;5396;50.950;6.988;2024-02-14T15:44:38;11.10;99.90